Time;durP1;ratioP1;P1;durP2;ratioP2;P2;SDS_P1;SDS_P2;PMS_P1;PMS_P2;Temp;Humidity;BMP_temperature;BMP_pressure;BME280_temperature;BME280_humidity;BME280_pressure;Samples;Min_cycle;Max_cycle;Signal;HPM_P1;HPM_P2
2022/02/12 00:00:12;;;;;;;0.20;0.20;;;;;;;3.43;63.50;103464.97;5025461;28;20040;-77
2022/02/12 00:02:39;;;;;;;0.10;0.10;;;;;;;3.37;64.00;103469.09;5025502;28;20022;-76
2022/02/12 00:05:06;;;;;;;0.22;0.22;;;;;;;3.38;63.75;103465.66;5025406;28;20383;-76
2022/02/12 00:07:32;;;;;;;0.10;0.10;;;;;;;3.38;63.93;103457.78;5023811;28;20485;-76
2022/02/12 00:09:59;;;;;;;1.42;1.40;;;;;;;3.38;64.24;103462.16;5024826;28;20045;-76
2022/02/12 00:12:25;;;;;;;0.20;0.20;;;;;;;3.37;64.30;103448.13;5025173;28;20026;-77
2022/02/12 00:14:55;;;;;;;0.10;0.10;;;;;;;3.39;64.18;103450.84;5023572;28;20034;-76
2022/02/12 00:17:22;;;;;;;0.50;0.50;;;;;;;3.39;64.15;103450.84;5023142;28;20022;-77
2022/02/12 00:19:48;;;;;;;0.20;0.20;;;;;;;3.38;63.98;103446.44;5022340;28;20037;-77
2022/02/12 00:22:15;;;;;;;0.10;0.10;;;;;;;3.37;64.29;103439.38;5013315;28;20030;-77
2022/02/12 00:24:41;;;;;;;0.10;0.10;;;;;;;3.37;64.65;103436.75;5011838;28;20026;-77
2022/02/12 00:27:07;;;;;;;0.10;0.10;;;;;;;3.38;64.78;103439.44;5011769;28;20026;-77
2022/02/12 00:29:33;;;;;;;0.10;0.10;;;;;;;3.39;64.78;103428.16;5011413;28;20065;-77
2022/02/12 00:32:00;;;;;;;0.10;0.10;;;;;;;3.39;65.06;103433.41;5011847;28;20034;-76
2022/02/12 00:34:26;;;;;;;0.20;0.20;;;;;;;3.39;64.57;103419.41;5011590;28;20078;-76
2022/02/12 00:36:53;;;;;;;0.20;0.20;;;;;;;3.39;65.04;103414.16;5011075;28;20091;-77
2022/02/12 00:39:19;;;;;;;0.10;0.10;;;;;;;3.37;65.21;103410.56;5011493;28;20034;-77
2022/02/12 00:41:45;;;;;;;0.20;0.20;;;;;;;3.39;64.08;103407.19;5011643;28;20057;-77
2022/02/12 00:44:15;;;;;;;0.20;0.20;;;;;;;3.40;64.54;103402.81;5011167;28;20495;-77
2022/02/12 00:46:41;;;;;;;0.10;0.10;;;;;;;3.37;64.75;103398.34;5011297;28;20041;-77
2022/02/12 00:49:07;;;;;;;0.10;0.10;;;;;;;3.37;64.76;103398.34;5010909;28;20041;-78
2022/02/12 00:51:34;;;;;;;0.13;0.13;;;;;;;3.37;64.51;103390.47;5011555;28;20429;-77
2022/02/12 00:54:02;;;;;;;0.30;0.30;;;;;;;3.36;64.76;103393.03;5011721;28;20034;-76
2022/02/12 00:56:29;;;;;;;0.55;0.52;;;;;;;3.35;64.63;103392.13;5011393;28;20033;-76
2022/02/12 00:58:56;;;;;;;0.30;0.30;;;;;;;3.33;65.46;103388.53;5010879;28;20686;-78
2022/02/12 01:01:23;;;;;;;1.58;1.48;;;;;;;3.33;65.41;103382.41;5011048;28;20026;-77
2022/02/12 01:03:50;;;;;;;0.10;0.10;;;;;;;3.31;65.29;103384.91;5011073;28;20030;-78
2022/02/12 01:06:16;;;;;;;0.10;0.10;;;;;;;3.33;64.89;103387.63;5009736;28;20045;-77
2022/02/12 01:08:42;;;;;;;0.13;0.13;;;;;;;3.33;64.44;103377.16;5011157;28;20024;-77
2022/02/12 01:11:10;;;;;;;0.20;0.20;;;;;;;3.33;64.82;103383.28;5011253;28;20034;-77
2022/02/12 01:13:37;;;;;;;0.10;0.10;;;;;;;3.32;64.57;103386.72;5011416;28;20033;-77
2022/02/12 01:16:03;;;;;;;0.15;0.15;;;;;;;3.32;64.99;103378.84;5009791;28;20121;-77
2022/02/12 01:18:29;;;;;;;0.10;0.10;;;;;;;3.30;65.20;103380.53;5010740;28;20038;-76
2022/02/12 01:20:55;;;;;;;0.20;0.20;;;;;;;3.32;64.74;103388.44;5021118;28;20030;-77
2022/02/12 01:23:21;;;;;;;0.10;0.10;;;;;;;3.32;64.58;103380.59;5019322;28;20068;-78
2022/02/12 01:25:48;;;;;;;0.10;0.10;;;;;;;3.31;64.75;103379.66;5010667;28;20034;-77
2022/02/12 01:28:15;;;;;;;0.20;0.20;;;;;;;3.30;64.54;103376.97;5010630;28;20029;-78
2022/02/12 01:30:43;;;;;;;0.20;0.20;;;;;;;3.27;64.69;103382.09;5010294;28;20033;-77
2022/02/12 01:33:09;;;;;;;0.20;0.20;;;;;;;3.29;64.59;103375.19;5009601;28;20472;-78
2022/02/12 01:35:36;;;;;;;0.10;0.10;;;;;;;3.30;64.28;103366.50;5018793;28;20500;-76
2022/02/12 01:38:02;;;;;;;0.17;0.17;;;;;;;3.30;64.56;103366.50;5025941;28;20034;-77
2022/02/12 01:40:28;;;;;;;0.10;0.10;;;;;;;3.28;65.43;103360.28;5008869;28;20060;-78
2022/02/12 01:42:56;;;;;;;0.10;0.10;;;;;;;3.30;65.03;103356.03;5026557;28;20383;-77
2022/02/12 01:45:22;;;;;;;0.10;0.10;;;;;;;3.30;65.06;103361.25;5017982;28;20472;-78
2022/02/12 01:47:48;;;;;;;0.13;0.13;;;;;;;3.29;65.02;103356.84;5010443;28;20022;-77
2022/02/12 01:50:15;;;;;;;0.10;0.10;;;;;;;3.30;64.86;103362.19;5019103;28;20041;-78
2022/02/12 01:52:43;;;;;;;0.20;0.20;;;;;;;3.30;64.90;103366.50;5010580;28;20105;-77
2022/02/12 01:55:09;;;;;;;0.20;0.20;;;;;;;3.30;64.97;103366.50;5011214;28;20038;-78
2022/02/12 01:57:36;;;;;;;0.20;0.20;;;;;;;3.30;64.63;103366.50;5011485;28;20034;-77
2022/02/12 02:00:05;;;;;;;0.20;0.20;;;;;;;3.30;65.19;103364.81;5011407;28;20065;-78
2022/02/12 02:02:31;;;;;;;0.20;0.20;;;;;;;3.26;65.21;103362.81;5006326;28;20030;-78
2022/02/12 02:04:57;;;;;;;0.10;0.10;;;;;;;3.23;65.19;103355.72;4990632;28;20038;-78
2022/02/12 02:07:24;;;;;;;0.20;0.20;;;;;;;3.22;64.87;103355.63;5009594;28;20476;-78
2022/02/12 02:09:51;;;;;;;0.68;0.68;;;;;;;3.21;65.13;103354.72;5010014;28;20124;-78
2022/02/12 02:12:17;;;;;;;0.10;0.10;;;;;;;3.19;65.01;103348.53;5004602;28;20026;-78
2022/02/12 02:14:44;;;;;;;0.90;0.85;;;;;;;3.18;64.95;103346.72;5010548;28;20030;-76
2022/02/12 02:17:11;;;;;;;0.30;0.30;;;;;;;3.19;64.95;103334.50;5011000;28;20094;-77
2022/02/12 02:19:38;;;;;;;0.10;0.10;;;;;;;3.19;64.34;103337.13;5011342;28;20076;-77
2022/02/12 02:22:05;;;;;;;0.20;0.20;;;;;;;3.17;64.63;103329.19;5011513;28;20116;-78
2022/02/12 02:24:32;;;;;;;0.47;0.47;;;;;;;3.17;64.68;103325.69;5004345;28;20054;-77
2022/02/12 02:29:49;;;;;;;0.20;0.20;;;;;;;3.18;64.68;103320.53;5095702;27;20396;-77
2022/02/12 02:32:17;;;;;;;0.20;0.20;;;;;;;3.16;64.73;103314.28;5111155;28;20083;-77
2022/02/12 02:34:49;;;;;;;0.15;0.15;;;;;;;3.21;64.69;103315.41;5111235;28;20038;-77
2022/02/12 02:37:16;;;;;;;2.15;1.75;;;;;;;3.18;65.03;103310.03;5092541;28;20028;-76
2022/02/12 02:39:42;;;;;;;0.10;0.10;;;;;;;3.18;64.86;103304.81;5072306;28;20114;-76
2022/02/12 02:42:08;;;;;;;0.10;0.10;;;;;;;3.17;64.94;103296.88;5070610;28;20032;-77
2022/02/12 02:44:34;;;;;;;0.10;0.10;;;;;;;3.16;64.54;103290.72;5071031;28;20033;-77
2022/02/12 02:47:32;;;;;;;0.10;0.10;;;;;;;3.17;64.61;103292.53;5070693;28;20121;-77
2022/02/12 02:49:47;;;;;;;0.10;0.10;;;;;;;3.17;64.66;103282.03;5073506;28;20043;-78
2022/02/12 02:57:46;;;;;;;0.10;0.10;;;;;;;3.11;64.58;103275.59;5089928;28;20048;-77
2022/02/12 03:00:12;;;;;;;0.10;0.10;;;;;;;3.09;64.94;103270.31;5083307;28;20107;-77
2022/02/12 03:02:39;;;;;;;0.30;0.30;;;;;;;3.12;65.02;103273.06;5070351;28;20083;-77
2022/02/12 03:05:06;;;;;;;0.20;0.20;;;;;;;3.10;65.01;103279.94;5069899;28;20123;-77
2022/02/12 03:07:32;;;;;;;0.17;0.17;;;;;;;3.11;64.68;103279.13;5069909;28;20032;-77
2022/02/12 03:09:58;;;;;;;0.10;0.10;;;;;;;3.10;64.58;103289.53;5063493;28;20042;-77
2022/02/12 03:12:24;;;;;;;0.10;0.10;;;;;;;3.14;64.61;103278.38;5082265;28;20520;-77
2022/02/12 03:14:50;;;;;;;0.20;0.20;;;;;;;3.15;64.50;103283.66;5080340;28;20036;-77
2022/02/12 03:17:16;;;;;;;0.22;0.22;;;;;;;3.17;64.36;103282.03;5089602;28;20044;-77
2022/02/12 03:19:42;;;;;;;0.47;0.47;;;;;;;3.17;64.61;103270.69;5090387;28;20020;-77
2022/02/12 03:22:09;;;;;;;0.10;0.10;;;;;;;3.18;64.14;103275.97;5085348;28;20032;-77
2022/02/12 03:24:35;;;;;;;0.10;0.10;;;;;;;3.18;64.05;103269.84;5069492;28;20039;-77
2022/02/12 03:27:02;;;;;;;0.10;0.10;;;;;;;3.10;64.57;103266.81;5069350;28;20032;-77
2022/02/12 03:29:28;;;;;;;0.20;0.20;;;;;;;3.11;64.14;103265.13;5074699;28;20040;-77
2022/02/12 03:31:54;;;;;;;0.10;0.10;;;;;;;3.12;64.20;103252.09;5080312;28;20033;-78
2022/02/12 03:34:20;;;;;;;0.10;0.10;;;;;;;3.08;64.06;103237.94;5069518;28;20572;-79
2022/02/12 03:36:46;;;;;;;0.20;0.20;;;;;;;3.07;64.25;103232.66;5069160;28;20127;-77
2022/02/12 03:39:12;;;;;;;0.13;0.13;;;;;;;3.03;64.02;103228.97;5048872;28;20043;-78
2022/02/12 03:41:39;;;;;;;0.10;0.10;;;;;;;3.02;64.22;103237.63;5061344;28;20029;-78
2022/02/12 03:44:05;;;;;;;0.20;0.20;;;;;;;3.00;64.15;103239.28;5066920;28;20021;-76
2022/02/12 03:46:33;;;;;;;0.15;0.15;;;;;;;2.99;64.09;103227.03;5055029;28;20033;-76
2022/02/12 03:48:59;;;;;;;0.10;0.10;;;;;;;2.96;64.29;103228.59;5035835;28;20041;-78
2022/02/12 03:51:31;;;;;;;0.10;0.10;;;;;;;3.00;64.29;103225.28;5044446;28;20029;-76
2022/02/12 03:54:07;;;;;;;0.20;0.20;;;;;;;2.96;64.40;103228.59;5056264;28;20532;-76
2022/02/12 03:56:42;;;;;;;0.10;0.10;;;;;;;2.97;64.50;103228.66;5055980;28;20036;-77
2022/02/12 03:59:21;;;;;;;0.10;0.10;;;;;;;3.03;64.37;103225.47;5059069;28;20082;-76
2022/02/12 04:01:48;;;;;;;0.20;0.20;;;;;;;2.97;63.98;103227.78;5056011;28;20056;-77
2022/02/12 04:04:14;;;;;;;0.20;0.20;;;;;;;2.96;64.04;103219.00;5055751;28;20033;-78
2022/02/12 04:06:40;;;;;;;0.20;0.20;;;;;;;2.94;64.21;103214.50;5056029;28;20784;-77
2022/02/12 04:09:06;;;;;;;0.10;0.10;;;;;;;2.94;64.15;103209.28;5056757;28;20064;-79
2022/02/12 04:11:32;;;;;;;0.13;0.13;;;;;;;2.96;64.14;103212.88;5064114;28;20033;-78
2022/02/12 04:13:58;;;;;;;0.13;0.13;;;;;;;2.96;64.30;103207.66;5070981;28;20017;-78
2022/02/12 04:16:24;;;;;;;0.20;0.20;;;;;;;2.96;64.14;103202.41;5056762;28;20029;-78
2022/02/12 04:18:50;;;;;;;2.03;1.30;;;;;;;2.96;63.97;103194.56;5054947;28;20037;-78
2022/02/12 04:21:17;;;;;;;0.20;0.20;;;;;;;2.95;64.02;103200.59;5055516;28;20111;-78
2022/02/12 04:23:44;;;;;;;0.10;0.10;;;;;;;2.95;63.84;103204.09;5055649;28;20487;-78
2022/02/12 04:26:10;;;;;;;0.10;0.10;;;;;;;2.91;63.95;103195.19;5060387;28;20471;-77
2022/02/12 04:28:37;;;;;;;0.65;0.65;;;;;;;2.95;64.06;103184.88;5066364;28;20051;-78
2022/02/12 04:31:05;;;;;;;0.20;0.20;;;;;;;2.96;64.00;103187.56;5055195;28;20031;-78
2022/02/12 04:33:32;;;;;;;0.40;0.40;;;;;;;2.97;63.91;103172.78;5055099;28;20025;-78
2022/02/12 04:35:59;;;;;;;0.10;0.10;;;;;;;2.92;63.91;103176.06;5057978;28;20112;-76
2022/02/12 04:38:25;;;;;;;1.00;1.00;;;;;;;2.96;63.78;103176.22;5056036;28;20029;-78
2022/02/12 04:40:51;;;;;;;0.10;0.10;;;;;;;2.93;63.94;103176.97;5055033;28;20041;-78
2022/02/12 04:43:17;;;;;;;0.10;0.10;;;;;;;2.94;63.91;103172.63;5058310;28;20107;-78
2022/02/12 04:45:43;;;;;;;0.10;0.10;;;;;;;2.96;64.23;103173.59;5074003;28;20036;-78
2022/02/12 04:48:10;;;;;;;0.20;0.20;;;;;;;2.97;64.20;103163.19;5074572;28;20470;-78
2022/02/12 04:50:37;;;;;;;0.38;0.38;;;;;;;2.93;64.44;103166.50;5074666;28;20478;-78
2022/02/12 04:53:03;;;;;;;0.10;0.10;;;;;;;2.96;63.86;103155.25;5073059;28;20103;-78
2022/02/12 04:55:29;;;;;;;0.10;0.10;;;;;;;2.99;63.95;103160.63;5057940;28;20035;-78
2022/02/12 04:57:56;;;;;;;0.10;0.10;;;;;;;2.94;63.88;103152.59;5059449;28;20117;-78
2022/02/12 05:00:22;;;;;;;0.10;0.10;;;;;;;2.96;64.17;103156.16;5056127;28;20029;-78
2022/02/12 05:02:48;;;;;;;0.13;0.13;;;;;;;3.00;64.22;103151.97;5054551;28;20021;-78
2022/02/12 05:05:14;;;;;;;0.17;0.17;;;;;;;3.00;63.81;103149.34;5072472;28;20111;-78
2022/02/12 05:07:40;;;;;;;1.25;1.23;;;;;;;3.01;64.07;103145.91;5074448;28;20037;-78
2022/02/12 05:10:07;;;;;;;0.20;0.20;;;;;;;2.92;64.13;103138.50;5074479;28;20082;-78
2022/02/12 05:12:34;;;;;;;0.17;0.17;;;;;;;2.92;64.27;103144.63;5073996;28;20475;-77
2022/02/12 05:15:01;;;;;;;0.20;0.20;;;;;;;2.97;64.18;103136.13;5072721;28;20380;-78
2022/02/12 05:17:27;;;;;;;0.10;0.10;;;;;;;2.96;63.99;103135.19;5053952;28;20111;-78
2022/02/12 05:19:53;;;;;;;0.10;0.10;;;;;;;2.94;64.13;103134.25;5054204;28;20029;-78
2022/02/12 05:22:19;;;;;;;0.63;0.63;;;;;;;2.92;64.28;103121.06;5054235;28;20494;-76
2022/02/12 05:24:46;;;;;;;0.10;0.10;;;;;;;2.95;64.26;103130.78;5068239;28;20036;-78
2022/02/12 05:27:12;;;;;;;0.10;0.10;;;;;;;2.99;64.11;103131.84;5073702;28;20025;-78
2022/02/12 05:29:38;;;;;;;0.10;0.10;;;;;;;2.96;63.88;103129.06;5062119;28;20076;-78
2022/02/12 05:32:05;;;;;;;4.47;1.98;;;;;;;2.95;64.21;103127.28;5068313;28;20066;-78
2022/02/12 05:34:31;;;;;;;0.15;0.15;;;;;;;2.92;64.25;103122.78;5074218;28;20032;-78
2022/02/12 05:36:57;;;;;;;0.15;0.15;;;;;;;2.91;63.94;103127.13;5056308;28;20024;-78
2022/02/12 05:39:23;;;;;;;0.13;0.13;;;;;;;2.92;63.88;103115.81;5054991;28;20033;-78
2022/02/12 05:41:49;;;;;;;0.10;0.10;;;;;;;2.92;64.13;103121.06;5066336;28;20063;-78
2022/02/12 05:44:15;;;;;;;0.55;0.55;;;;;;;2.87;63.97;103113.81;5058064;28;20051;-78
2022/02/12 05:46:41;;;;;;;0.10;0.10;;;;;;;2.88;64.12;103121.75;5053429;28;20032;-77
2022/02/12 05:49:07;;;;;;;0.10;0.10;;;;;;;2.88;64.01;103111.28;5053904;28;20060;-78
2022/02/12 05:51:34;;;;;;;0.15;0.15;;;;;;;2.86;63.98;103109.41;5063675;28;20036;-78
2022/02/12 05:54:02;;;;;;;0.17;0.17;;;;;;;2.84;63.89;103098.88;5073504;28;20037;-78
2022/02/12 05:56:29;;;;;;;0.20;0.20;;;;;;;2.84;64.10;103103.19;5073485;28;20047;-77
2022/02/12 05:58:56;;;;;;;0.10;0.10;;;;;;;2.82;64.13;103105.75;5061749;28;20175;-77
2022/02/12 06:01:22;;;;;;;0.20;0.20;;;;;;;2.76;64.14;103097.59;5045603;28;20119;-78
2022/02/12 06:03:48;;;;;;;0.20;0.20;;;;;;;2.78;63.81;103095.94;5072746;28;20116;-77
2022/02/12 06:06:17;;;;;;;0.82;0.82;;;;;;;2.77;64.21;103091.53;5073239;28;20021;-78
2022/02/12 06:08:43;;;;;;;0.10;0.10;;;;;;;2.71;64.03;103083.38;5064036;28;20035;-78
2022/02/12 06:11:10;;;;;;;0.10;0.10;;;;;;;2.72;64.04;103082.56;5047936;28;20090;-79
2022/02/12 06:13:36;;;;;;;0.20;0.20;;;;;;;2.69;64.31;103080.69;5057249;28;20041;-77
2022/02/12 06:16:02;;;;;;;0.10;0.10;;;;;;;2.69;63.99;103079.78;5053382;28;20522;-77
2022/02/12 06:18:28;;;;;;;0.20;0.20;;;;;;;2.65;64.23;103075.22;5058355;28;20050;-77
2022/02/12 06:20:56;;;;;;;0.10;0.10;;;;;;;2.57;64.44;103078.34;5073389;28;20032;-78
2022/02/12 06:23:22;;;;;;;0.10;0.10;;;;;;;2.59;64.44;103071.50;5073304;28;20024;-78
2022/02/12 06:25:48;;;;;;;0.10;0.10;;;;;;;2.59;64.47;103060.09;5072930;28;20024;-77
2022/02/12 06:28:15;;;;;;;0.20;0.20;;;;;;;2.61;64.45;103057.59;5061922;28;20029;-77
2022/02/12 06:30:41;;;;;;;0.10;0.10;;;;;;;2.59;64.63;103054.88;5053315;28;20112;-78
2022/02/12 06:33:07;;;;;;;0.10;0.10;;;;;;;2.61;64.52;103055.84;5053144;28;20464;-76
2022/02/12 06:35:34;;;;;;;0.20;0.20;;;;;;;2.61;64.63;103052.34;5053199;28;20030;-78
2022/02/12 06:38:00;;;;;;;0.10;0.10;;;;;;;2.59;64.52;103044.41;5054229;28;20064;-77
2022/02/12 06:40:27;;;;;;;0.10;0.10;;;;;;;2.56;64.48;103049.50;5052972;28;20025;-78
2022/02/12 06:42:53;;;;;;;0.10;0.10;;;;;;;2.56;64.70;103050.38;5058369;28;20056;-78
2022/02/12 06:45:19;;;;;;;1.75;1.45;;;;;;;2.57;64.84;103049.56;5063657;28;20033;-77
2022/02/12 06:47:45;;;;;;;0.10;0.10;;;;;;;2.60;64.67;103046.19;5052741;28;20078;-78
2022/02/12 06:50:11;;;;;;;0.30;0.30;;;;;;;2.59;64.64;103053.16;5053194;28;20384;-77
2022/02/12 06:52:39;;;;;;;0.20;0.20;;;;;;;2.58;64.75;103053.97;5052943;28;20537;-78
2022/02/12 06:55:06;;;;;;;0.17;0.17;;;;;;;2.61;64.74;103047.13;5059760;28;20514;-78
2022/02/12 06:57:32;;;;;;;0.10;0.10;;;;;;;2.62;64.89;103054.13;5062131;28;20529;-77
2022/02/12 06:59:58;;;;;;;0.20;0.20;;;;;;;2.57;64.44;103053.91;5052642;28;20059;-78
2022/02/12 07:02:24;;;;;;;0.10;0.10;;;;;;;2.63;64.67;103048.06;5053473;28;20033;-79
2022/02/12 07:04:50;;;;;;;0.10;0.10;;;;;;;2.66;64.36;103046.50;5053231;28;20035;-78
2022/02/12 07:07:16;;;;;;;0.10;0.10;;;;;;;2.62;64.51;103043.66;5060661;28;20459;-78
2022/02/12 07:09:42;;;;;;;0.38;0.38;;;;;;;2.64;64.48;103047.25;5072334;28;20123;-78
2022/02/12 07:12:09;;;;;;;0.10;0.10;;;;;;;2.65;64.64;103039.47;5067018;28;20037;-78
2022/02/12 07:14:35;;;;;;;0.20;0.20;;;;;;;2.62;64.73;103043.66;5053493;28;20094;-78
2022/02/12 07:17:03;;;;;;;0.20;0.20;;;;;;;2.65;64.55;103036.84;5056330;28;20060;-78
2022/02/12 07:19:29;;;;;;;0.10;0.10;;;;;;;2.63;64.57;103050.69;5056662;28;20044;-78
2022/02/12 07:21:55;;;;;;;0.10;0.10;;;;;;;2.66;64.69;103051.72;5055804;28;20037;-78
2022/02/12 07:24:21;;;;;;;0.35;0.35;;;;;;;2.65;64.58;103038.59;5055936;28;20029;-77
2022/02/12 07:26:47;;;;;;;0.20;0.20;;;;;;;2.69;64.71;103048.38;5051590;28;20034;-78
2022/02/12 07:29:13;;;;;;;0.20;0.20;;;;;;;2.65;64.81;103039.47;5052417;28;20041;-77
2022/02/12 07:31:39;;;;;;;1.15;1.08;;;;;;;2.66;64.67;103041.25;5054713;28;20081;-78
2022/02/12 07:34:07;;;;;;;0.10;0.10;;;;;;;2.67;64.41;103039.56;5057596;28;20033;-78
2022/02/12 07:36:33;;;;;;;0.10;0.10;;;;;;;2.68;64.45;103041.34;5055574;28;20029;-78
2022/02/12 07:38:59;;;;;;;0.10;0.10;;;;;;;2.71;64.38;103036.25;5055981;28;20025;-78
2022/02/12 07:41:27;;;;;;;0.10;0.10;;;;;;;2.74;64.34;103031.16;5055535;28;20454;-79
2022/02/12 07:43:54;;;;;;;0.10;0.10;;;;;;;2.76;64.24;103029.50;5072719;28;20534;-79
2022/02/12 07:46:20;;;;;;;0.52;0.52;;;;;;;2.74;64.30;103024.22;5064737;28;20104;-79
2022/02/12 07:48:47;;;;;;;5.63;1.50;;;;;;;2.79;64.67;103026.16;5054975;28;20510;-79
2022/02/12 07:51:13;;;;;;;0.10;0.10;;;;;;;2.84;64.36;103024.63;5052780;28;20017;-81
2022/02/12 07:53:39;;;;;;;0.10;0.10;;;;;;;2.85;64.29;103024.69;5057449;28;20036;-79
2022/02/12 07:56:05;;;;;;;0.20;0.20;;;;;;;2.90;64.26;103022.31;5054402;28;20423;-78
2022/02/12 07:58:31;;;;;;;0.10;0.10;;;;;;;2.90;64.16;103023.22;5054999;28;20032;-79
2022/02/12 08:00:57;;;;;;;0.20;0.20;;;;;;;2.92;64.26;103024.16;5053627;28;20430;-78
2022/02/12 08:03:24;;;;;;;0.10;0.10;;;;;;;2.94;64.38;103021.66;5054096;28;20104;-79
2022/02/12 08:05:50;;;;;;;0.10;0.10;;;;;;;2.99;64.11;103014.91;5054495;28;20032;-79
2022/02/12 08:08:16;;;;;;;0.10;0.10;;;;;;;2.98;64.24;103022.66;5054634;28;20391;-78
2022/02/12 08:13:28;;;;;;;0.20;0.20;;;;;;;3.05;63.96;103009.03;5073825;28;20033;-79
2022/02/12 08:15:54;;;;;;;0.10;0.10;;;;;;;3.09;64.38;103005.75;5075174;28;20470;-79
2022/02/12 08:18:20;;;;;;;0.45;0.45;;;;;;;3.19;64.34;103005.31;5075726;28;20032;-78
2022/02/12 08:20:47;;;;;;;0.85;0.85;;;;;;;3.23;64.27;103008.97;5062226;28;20464;-78
2022/02/12 08:23:13;;;;;;;0.10;0.10;;;;;;;3.29;63.94;103004.03;5071487;28;20035;-79
2022/02/12 08:25:39;;;;;;;0.10;0.10;;;;;;;3.34;64.16;103012.06;5071621;28;20033;-78
2022/02/12 08:28:05;;;;;;;0.10;0.10;;;;;;;3.33;64.02;103005.06;5060263;28;20037;-79
2022/02/12 08:30:32;;;;;;;0.10;0.10;;;;;;;3.44;63.93;103006.44;5054787;28;20064;-79
2022/02/12 08:32:58;;;;;;;1.17;1.17;;;;;;;3.48;63.91;102997.88;5055043;28;20479;-79
2022/02/12 08:37:59;;;;;;;0.10;0.10;;;;;;;3.56;63.47;102999.13;5009461;28;20104;-82
2022/02/12 08:40:25;;;;;;;0.10;0.10;;;;;;;3.67;63.59;102996.94;5013534;28;20069;-80
2022/02/12 08:42:52;;;;;;;0.10;0.10;;;;;;;3.73;63.64;102998.94;5013599;28;20032;-79
2022/02/12 08:45:19;;;;;;;0.10;0.10;;;;;;;3.72;63.39;102989.28;5012969;28;20100;-80
2022/02/12 08:47:45;;;;;;;0.10;0.10;;;;;;;3.81;63.43;102987.03;5007749;28;20032;-79
2022/02/12 08:50:11;;;;;;;0.10;0.10;;;;;;;3.79;63.23;102991.34;5004699;28;20029;-79
2022/02/12 08:52:40;;;;;;;0.10;0.10;;;;;;;3.91;63.37;102985.69;5004264;28;20042;-79
2022/02/12 08:55:07;;;;;;;0.10;0.10;;;;;;;3.94;63.19;102980.59;5003629;28;20408;-79
2022/02/12 08:57:35;;;;;;;0.10;0.10;;;;;;;4.00;63.21;102975.59;5009725;28;20512;-79
2022/02/12 09:00:02;;;;;;;0.13;0.13;;;;;;;4.10;62.44;102973.34;5010029;28;20025;-79
2022/02/12 09:02:28;;;;;;;0.40;0.40;;;;;;;4.17;62.83;102963.16;5009509;28;20037;-79
2022/02/12 09:04:54;;;;;;;0.15;0.15;;;;;;;4.29;62.66;102952.28;5004228;28;20472;-79
2022/02/12 09:07:20;;;;;;;0.10;0.10;;;;;;;4.21;62.32;102954.59;5006614;28;20033;-79
2022/02/12 09:09:47;;;;;;;0.47;0.47;;;;;;;4.34;62.45;102948.09;5009137;28;20037;-79
2022/02/12 09:12:13;;;;;;;0.10;0.10;;;;;;;4.46;62.21;102939.84;5008760;28;20231;-80
2022/02/12 09:14:40;;;;;;;0.10;0.10;;;;;;;4.55;62.39;102944.53;5006462;28;20046;-80
2022/02/12 09:17:06;;;;;;;0.40;0.40;;;;;;;4.63;62.35;102943.09;5007028;28;20034;-79
2022/02/12 09:19:34;;;;;;;0.10;0.10;;;;;;;4.71;61.93;102938.16;5009195;28;20104;-79
2022/02/12 09:22:00;;;;;;;0.98;0.73;;;;;;;4.70;61.47;102937.25;4999458;28;20026;-80
2022/02/12 09:24:26;;;;;;;0.10;0.10;;;;;;;4.89;61.25;102937.94;5006192;28;20034;-80
2022/02/12 09:26:53;;;;;;;0.13;0.13;;;;;;;4.96;61.50;102932.09;5013306;28;20057;-80
2022/02/12 09:29:19;;;;;;;0.17;0.17;;;;;;;5.00;60.84;102925.22;4999638;28;20038;-80
2022/02/12 09:31:45;;;;;;;0.10;0.10;;;;;;;5.10;60.54;102919.44;4996638;28;20026;-80
2022/02/12 09:34:11;;;;;;;0.55;0.55;;;;;;;5.18;60.42;102923.25;4998197;28;20512;-80
2022/02/12 09:36:39;;;;;;;0.20;0.20;;;;;;;5.26;59.94;102912.09;5004760;28;20030;-80
2022/02/12 09:39:06;;;;;;;0.10;0.10;;;;;;;5.36;59.72;102922.13;5003372;28;20483;-80
2022/02/12 09:41:34;;;;;;;1.10;1.10;;;;;;;5.45;59.42;102916.28;5013680;28;20053;-80
2022/02/12 09:44:00;;;;;;;0.55;0.55;;;;;;;5.44;59.01;102925.00;5013699;28;20084;-81
2022/02/12 09:49:08;;;;;;;0.10;0.10;;;;;;;5.69;58.73;102910.94;5090491;27;20458;-80
2022/02/12 09:51:37;;;;;;;0.10;0.10;;;;;;;5.79;58.30;102901.63;5049225;28;20032;-80
2022/02/12 09:54:03;;;;;;;0.10;0.10;;;;;;;5.93;58.07;102903.00;5049921;28;20037;-80
2022/02/12 09:56:29;;;;;;;0.10;0.10;;;;;;;6.04;58.52;102903.34;5050458;28;20025;-80
2022/02/12 09:58:55;;;;;;;0.10;0.10;;;;;;;6.04;57.10;102898.09;5050029;28;20033;-82
2022/02/12 10:01:21;;;;;;;0.10;0.10;;;;;;;6.15;57.76;102901.06;5036272;28;20084;-80
2022/02/12 10:03:49;;;;;;;0.10;0.10;;;;;;;6.20;56.83;102894.19;5046761;28;20489;-80
2022/02/12 10:06:16;;;;;;;0.10;0.10;;;;;;;6.31;56.75;102897.19;5050492;28;20030;-81
2022/02/12 10:09:03;;;;;;;0.20;0.20;;;;;;;6.37;56.11;102893.81;5049977;28;20040;-80
2022/02/12 10:11:40;;;;;;;2.78;2.58;;;;;;;6.45;55.98;102887.94;5047752;28;20104;-80
2022/02/12 10:14:09;;;;;;;0.52;0.52;;;;;;;6.53;56.46;102876.75;5042266;28;20034;-80
2022/02/12 10:16:57;;;;;;;0.10;0.10;;;;;;;6.66;56.26;102871.00;5030249;28;20030;-80
2022/02/12 10:19:43;;;;;;;0.10;0.10;;;;;;;6.79;55.92;102859.97;5033648;28;20044;-80
2022/02/12 10:22:13;;;;;;;0.20;0.20;;;;;;;6.87;55.83;102857.53;5040667;28;20029;-81
2022/02/12 10:25:00;;;;;;;0.10;0.10;;;;;;;7.07;55.92;102852.81;5044776;28;20033;-81
2022/02/12 10:27:28;;;;;;;0.15;0.15;;;;;;;7.07;55.10;102852.81;5029701;28;20068;-81
2022/02/12 10:29:58;;;;;;;0.10;0.10;;;;;;;7.06;55.43;102845.75;5036901;28;20025;-81
2022/02/12 10:32:25;;;;;;;0.10;0.10;;;;;;;7.09;54.32;102855.47;5048475;28;20508;-81
2022/02/12 10:34:56;;;;;;;2.20;0.68;;;;;;;7.18;53.90;102841.66;5049709;28;20041;-81
2022/02/12 10:37:23;;;;;;;0.10;0.10;;;;;;;7.26;54.29;102845.38;5031232;28;20481;-81
2022/02/12 10:40:06;;;;;;;0.32;0.32;;;;;;;7.36;53.32;102842.13;5029907;28;20037;-82
2022/02/12 10:42:34;;;;;;;0.10;0.10;;;;;;;7.39;52.78;102850.13;5032466;28;20076;-80
2022/02/12 10:45:00;;;;;;;0.10;0.10;;;;;;;7.53;53.55;102849.59;5031171;28;20037;-81
2022/02/12 10:47:27;;;;;;;3.20;0.77;;;;;;;7.54;52.95;102851.34;5044091;28;20045;-81
2022/02/12 10:49:53;;;;;;;0.10;0.10;;;;;;;7.57;52.29;102856.72;5043535;28;20095;-81
2022/02/12 10:52:20;;;;;;;0.13;0.13;;;;;;;7.72;52.81;102851.81;5032268;28;20030;-81
2022/02/12 10:54:49;;;;;;;0.10;0.10;;;;;;;7.75;51.98;102854.53;5033623;28;20033;-81
2022/02/12 10:57:17;;;;;;;0.10;0.10;;;;;;;7.85;51.95;102854.75;5028549;28;20389;-81
2022/02/12 10:59:44;;;;;;;5.60;1.85;;;;;;;7.99;52.00;102849.78;5020144;28;20026;-80
2022/02/12 11:02:15;;;;;;;0.10;0.10;;;;;;;7.96;52.28;102839.16;5019486;28;20186;-80
2022/02/12 11:04:42;;;;;;;0.10;0.10;;;;;;;8.15;51.24;102829.91;5015848;28;20469;-79
2022/02/12 11:07:15;;;;;;;1.95;1.85;;;;;;;8.22;49.61;102826.53;5015489;28;20483;-80
2022/02/12 11:09:44;;;;;;;0.10;0.10;;;;;;;8.14;49.58;102826.38;5017065;28;20057;-80
2022/02/12 11:12:11;;;;;;;0.10;0.10;;;;;;;8.40;49.67;102836.63;5016523;28;20022;-80
2022/02/12 11:14:37;;;;;;;0.22;0.22;;;;;;;8.47;49.62;102824.47;5015655;28;20445;-80
2022/02/12 11:17:07;;;;;;;0.10;0.10;;;;;;;8.52;49.84;102801.66;5015108;28;20036;-80
2022/02/12 11:19:35;;;;;;;0.10;0.10;;;;;;;8.70;48.82;102814.38;5015682;28;20108;-80
2022/02/12 11:22:02;;;;;;;0.10;0.10;;;;;;;8.82;49.06;102805.75;5015572;28;20026;-80
2022/02/12 11:24:45;;;;;;;0.10;0.10;;;;;;;9.04;48.76;102788.53;5015240;28;20110;-80
2022/02/12 11:32:53;;;;;;;0.10;0.10;;;;;;;9.26;46.47;102773.03;5110697;27;20454;-80
2022/02/12 11:35:23;;;;;;;0.10;0.10;;;;;;;9.34;46.63;102772.28;5111066;28;20032;-81
2022/02/12 11:37:50;;;;;;;0.10;0.10;;;;;;;9.31;46.59;102759.03;5089072;28;20044;-80
2022/02/12 11:43:05;;;;;;;0.15;0.15;;;;;;;9.39;45.14;102740.63;5071061;27;20419;-79
2022/02/12 11:53:54;;;;;;;0.10;0.10;;;;;;;9.77;46.11;102729.72;5071202;28;20463;-79
2022/02/12 11:59:01;;;;;;;0.10;0.10;;;;;;;9.98;45.20;102723.81;5069490;28;20480;-79
2022/02/12 12:12:34;;;;;;;0.10;0.10;;;;;;;10.22;44.41;102697.59;5069928;28;20461;-80
2022/02/12 12:15:20;;;;;;;0.10;0.10;;;;;;;10.31;43.20;102692.41;5062206;28;20037;-82
2022/02/12 12:17:55;;;;;;;0.10;0.10;;;;;;;10.33;44.12;102688.00;5048843;28;20387;-80
2022/02/12 12:20:30;;;;;;;0.10;0.10;;;;;;;10.42;44.23;102676.63;5048114;28;20025;-80